| time (UTC) | temp F | wind direction | speed MPH | gust MPH | rain 1hr in | rain 24hr in | rain mn in | humidity % | barometer mb |
| 20260504200509 | 83 | 248 | 0.0 | 0.0 | 0.00 | 0.10 | 0.04 | 53 | 1008.3 |
| 20260504200024 | 83 | 248 | 0.0 | 0.0 | 0.00 | 0.10 | 0.04 | 53 | 1008.4 |
| 20260504195507 | 83 | 227 | 0.0 | 0.0 | 0.00 | 0.10 | 0.04 | 55 | 1008.5 |
| 20260504195012 | 82 | 186 | 0.0 | 0.0 | 0.00 | 0.11 | 0.04 | 55 | 1008.6 |
| 20260504194505 | 0 | 0.0 | 5.0 | 0.00 | 0.11 | 0.04 | 1008.6 | ||
| 20260504194228 | 82 | 165 | 2.0 | 5.0 | 0.00 | 0.11 | 0.04 | 53 | 1008.8 |
| 20260504194117 | 82 | 165 | 2.0 | 5.0 | 0.00 | 0.11 | 0.04 | 53 | 1008.8 |
| 20260504193507 | 0 | 0.0 | 0.0 | 0.01 | 0.11 | 0.04 | 1008.8 | ||
| 20260504193008 | 83 | 94 | 0.0 | 0.0 | 0.01 | 0.11 | 0.04 | 53 | 1008.8 |
| 20260504192505 | 83 | 158 | 0.0 | 0.0 | 0.01 | 0.11 | 0.04 | 53 | 1008.8 |
| 20260504192007 | 84 | 206 | 0.0 | 0.0 | 0.01 | 0.11 | 0.04 | 53 | 1009.0 |
| 20260504191503 | 0 | 0.0 | 0.0 | 0.01 | 0.11 | 0.04 | 1009.0 | ||
| 20260504191006 | 84 | 283 | 0.0 | 0.0 | 0.01 | 0.11 | 0.04 | 53 | 1009.2 |
| 20260504190506 | 84 | 203 | 0.0 | 0.0 | 0.01 | 0.11 | 0.04 | 52 | 1009.2 |
| 20260504190005 | 0 | 0.0 | 0.0 | 0.01 | 0.12 | 0.04 | 1009.3 | ||
| 20260504185501 | 0 | 0.0 | 0.0 | 0.01 | 0.12 | 0.04 | 1009.4 | ||
| 20260504185001 | 0 | 0.0 | 0.0 | 0.01 | 0.12 | 0.04 | 1009.3 | ||
| 20260504184718 | 83 | 244 | 0.0 | 0.0 | 0.01 | 0.12 | 0.04 | 53 | 1009.3 |
| 20260504184613 | 83 | 244 | 0.0 | 0.0 | 0.01 | 0.12 | 0.04 | 53 | 1009.3 |
| 20260504184001 | 83 | 250 | 0.0 | 0.0 | 0.01 | 0.12 | 0.04 | 53 | 1009.5 |
| 20260504183459 | 0 | 0.0 | 0.0 | 0.00 | 0.11 | 0.03 | 1009.5 | ||
| 20260504183000 | 83 | 186 | 0.0 | 0.0 | 0.00 | 0.11 | 0.03 | 52 | 1009.5 |
| 20260504182456 | 0 | 0.0 | 0.0 | 0.00 | 0.11 | 0.03 | 1009.6 | ||
| 20260504181956 | 0 | 0.0 | 0.0 | 0.00 | 0.11 | 0.03 | 1009.5 | ||
| 20260504181456 | 83 | 258 | 0.0 | 3.0 | 0.00 | 0.12 | 0.03 | 52 | 1009.7 |
| 20260504181216 | 83 | 234 | 0.0 | 3.0 | 0.00 | 0.12 | 0.03 | 52 | 1009.9 |
| 20260504181104 | 83 | 234 | 0.0 | 3.0 | 0.00 | 0.12 | 0.03 | 52 | 1009.9 |
| 20260504180453 | 83 | 175 | 0.0 | 0.0 | 0.00 | 0.12 | 0.03 | 53 | 1009.9 |
| 20260504175956 | 83 | 223 | 0.0 | 0.0 | 0.00 | 0.12 | 0.03 | 52 | 1009.8 |
| 20260504175449 | 82 | 237 | 0.0 | 0.0 | 0.00 | 0.12 | 0.03 | 53 | 1010.0 |
| 20260504174954 | 81 | 243 | 0.0 | 0.0 | 0.00 | 0.12 | 0.03 | 55 | 1010.0 |
| 20260504174718 | 81 | 255 | 0.0 | 5.0 | 0.00 | 0.12 | 0.03 | 56 | 1010.1 |
| 20260504174603 | 81 | 255 | 0.0 | 5.0 | 0.00 | 0.12 | 0.03 | 56 | 1010.1 |
| 20260504173957 | 80 | 288 | 0.0 | 5.0 | 0.00 | 0.12 | 0.03 | 56 | 1010.1 |
| 20260504173452 | 80 | 190 | 0.0 | 10.0 | 0.00 | 0.12 | 0.03 | 58 | 1010.2 |
| 20260504172955 | 80 | 142 | 2.0 | 10.0 | 0.00 | 0.13 | 0.03 | 54 | 1010.2 |
| 20260504172452 | 81 | 162 | 0.0 | 0.0 | 0.00 | 0.13 | 0.03 | 54 | 1010.4 |
| 20260504171956 | 81 | 165 | 0.0 | 0.0 | 0.00 | 0.13 | 0.03 | 54 | 1010.4 |
| 20260504171453 | 81 | 255 | 0.0 | 0.0 | 0.00 | 0.13 | 0.03 | 52 | 1010.6 |
| 20260504170950 | 81 | 144 | 0.0 | 0.0 | 0.00 | 0.13 | 0.03 | 55 | 1010.7 |
| 20260504170716 | 81 | 293 | 0.0 | 0.0 | 0.00 | 0.13 | 0.03 | 56 | 1010.6 |
| 20260504170600 | 81 | 293 | 0.0 | 0.0 | 0.00 | 0.13 | 0.03 | 56 | 1010.6 |
| 20260504150947 | 76 | 214 | 0.0 | 4.0 | 0.01 | 0.16 | 0.03 | 61 | 1011.5 |
| 20260504150711 | 76 | 148 | 0.0 | 4.0 | 0.01 | 0.16 | 0.03 | 61 | 1011.5 |
| 20260504150554 | 76 | 148 | 0.0 | 4.0 | 0.01 | 0.16 | 0.03 | 61 | 1011.5 |
| 20260504140944 | 72 | 240 | 0.0 | 1.0 | 0.00 | 0.16 | 0.02 | 66 | 1011.5 |
| 20260504140445 | 71 | 247 | 0.0 | 1.0 | 0.00 | 0.16 | 0.02 | 67 | 1011.5 |
| 20260504130444 | 60 | 245 | 0.0 | 0.0 | 0.00 | 0.17 | 0.02 | 82 | 1011.6 |
| 20260504130206 | 60 | 245 | 0.0 | 0.0 | 0.00 | 0.17 | 0.02 | 83 | 1011.6 |
| 20260504110441 | 59 | 245 | 0.0 | 0.0 | 0.00 | 0.18 | 0.01 | 85 | 1011.0 |
| 20260504100438 | 60 | 245 | 0.0 | 0.0 | 0.00 | 0.19 | 0.01 | 83 | 1011.2 |
| 20260504100222 | 60 | 245 | 0.0 | 0.0 | 0.00 | 0.19 | 0.01 | 83 | 1011.4 |
| 20260504081938 | 61 | 245 | 0.0 | 0.0 | 0.00 | 0.21 | 0.01 | 80 | 1011.9 |
| 20260504081435 | 61 | 245 | 0.0 | 0.0 | 0.01 | 0.21 | 0.01 | 80 | 1012.0 |
| 20260504081201 | 62 | 245 | 0.0 | 0.0 | 0.01 | 0.21 | 0.01 | 80 | 1012.0 |
| 20260504081047 | 62 | 245 | 0.0 | 0.0 | 0.01 | 0.21 | 0.01 | 80 | 1012.0 |
| 20260504080435 | 62 | 245 | 0.0 | 0.0 | 0.01 | 0.21 | 0.01 | 80 | 1012.2 |
| 20260504050433 | 65 | 245 | 0.0 | 0.0 | 0.01 | 0.24 | 0.00 | 68 | 1013.8 |
| 20260504045933 | 65 | 245 | 0.0 | 0.0 | 0.01 | 0.24 | 0.24 | 67 | 1013.7 |
| 20260504045433 | 65 | 245 | 0.0 | 0.0 | 0.01 | 0.24 | 0.24 | 67 | 1013.8 |
| 20260504044934 | 65 | 245 | 0.0 | 0.0 | 0.00 | 0.23 | 0.23 | 66 | 1013.9 |
| 20260504044426 | 66 | 245 | 0.0 | 0.0 | 0.00 | 0.23 | 0.23 | 66 | 1014.0 |
| 20260504043934 | 66 | 245 | 0.0 | 0.0 | 0.00 | 0.23 | 0.23 | 66 | 1013.9 |
| 20260504043431 | 66 | 245 | 0.0 | 0.0 | 0.00 | 0.23 | 0.23 | 66 | 1014.0 |
| 20260504042933 | 66 | 245 | 0.0 | 0.0 | 0.00 | 0.23 | 0.23 | 66 | 1013.9 |
| 20260504042432 | 66 | 245 | 0.0 | 0.0 | 0.00 | 0.24 | 0.23 | 64 | 1014.0 |
| 20260504041933 | 66 | 245 | 0.0 | 0.0 | 0.00 | 0.24 | 0.23 | 64 | 1013.9 |
| 20260504041444 | 67 | 245 | 0.0 | 0.0 | 0.00 | 0.24 | 0.23 | 64 | 1014.0 |
| 20260504040934 | 67 | 245 | 0.0 | 0.0 | 0.00 | 0.24 | 0.23 | 64 | 1014.0 |
| 20260504040431 | 67 | 245 | 0.0 | 0.0 | 0.00 | 0.24 | 0.23 | 64 | 1014.0 |
| 20260504040416 | 67 | 245 | 0.0 | 0.0 | 0.00 | 0.24 | 0.23 | 63 | 1014.0 |
| 20260504040038 | 67 | 245 | 0.0 | 0.0 | 0.00 | 0.24 | 0.23 | 63 | 1014.0 |
| 20260504035431 | 67 | 245 | 0.0 | 0.0 | 0.00 | 0.24 | 0.23 | 62 | 1013.9 |
| 20260504034931 | 68 | 245 | 0.0 | 0.0 | 0.00 | 0.24 | 0.23 | 61 | 1013.8 |
| 20260504034429 | 68 | 245 | 0.0 | 0.0 | 0.00 | 0.24 | 0.23 | 62 | 1013.9 |
| 20260504034147 | 68 | 245 | 0.0 | 0.0 | 0.00 | 0.24 | 0.23 | 59 | 1014.0 |
| 20260504034039 | 68 | 245 | 0.0 | 0.0 | 0.00 | 0.24 | 0.23 | 59 | 1014.0 |
| 20260504033430 | 69 | 245 | 0.0 | 0.0 | 0.00 | 0.25 | 0.23 | 59 | 1013.9 |
| 20260504032933 | 69 | 245 | 0.0 | 0.0 | 0.00 | 0.25 | 0.23 | 58 | 1014.0 |
| 20260504032429 | 69 | 245 | 0.0 | 0.0 | 0.00 | 0.25 | 0.23 | 58 | 1014.1 |
| 20260504031932 | 69 | 245 | 0.0 | 0.0 | 0.00 | 0.25 | 0.23 | 58 | 1014.0 |
| 20260504031429 | 69 | 245 | 0.0 | 0.0 | 0.00 | 0.25 | 0.23 | 57 | 1013.9 |
| 20260504030930 | 69 | 245 | 0.0 | 0.0 | 0.00 | 0.25 | 0.23 | 57 | 1013.9 |
| 20260504030430 | 69 | 245 | 0.0 | 0.0 | 0.01 | 0.25 | 0.23 | 56 | 1013.9 |
| 20260504030421 | 70 | 245 | 0.0 | 0.0 | 0.01 | 0.26 | 0.23 | 56 | 1013.9 |
| 20260504030040 | 70 | 245 | 0.0 | 0.0 | 0.01 | 0.26 | 0.23 | 56 | 1013.9 |
| 20260504025428 | 70 | 245 | 0.0 | 0.0 | 0.01 | 0.26 | 0.23 | 56 | 1013.8 |
| 20260504024931 | 70 | 245 | 0.0 | 0.0 | 0.01 | 0.26 | 0.23 | 56 | 1013.8 |
| 20260504024651 | 70 | 250 | 0.0 | 0.0 | 0.01 | 0.26 | 0.23 | 55 | 1013.7 |
| 20260504024535 | 70 | 250 | 0.0 | 0.0 | 0.01 | 0.26 | 0.23 | 55 | 1013.7 |
| 20260504023933 | 71 | 251 | 0.0 | 0.0 | 0.01 | 0.26 | 0.23 | 54 | 1013.7 |
| 20260504023429 | 71 | 251 | 0.0 | 0.0 | 0.01 | 0.26 | 0.23 | 54 | 1013.8 |
| 20260504023153 | 71 | 251 | 0.0 | 0.0 | 0.01 | 0.26 | 0.23 | 53 | 1013.8 |
| 20260504023033 | 71 | 251 | 0.0 | 0.0 | 0.01 | 0.26 | 0.23 | 53 | 1013.8 |
| 20260504022428 | 71 | 221 | 0.0 | 0.0 | 0.01 | 0.26 | 0.23 | 53 | 1013.8 |
| 20260504022152 | 71 | 221 | 0.0 | 0.0 | 0.01 | 0.27 | 0.23 | 52 | 1013.7 |
| 20260504022039 | 71 | 221 | 0.0 | 0.0 | 0.01 | 0.27 | 0.23 | 52 | 1013.7 |
| 20260504021427 | 71 | 226 | 0.0 | 0.0 | 0.01 | 0.27 | 0.23 | 52 | 1013.6 |
| 20260504021153 | 71 | 248 | 0.0 | 0.0 | 0.01 | 0.27 | 0.23 | 52 | 1013.6 |
| 20260504021041 | 71 | 248 | 0.0 | 0.0 | 0.01 | 0.27 | 0.23 | 52 | 1013.6 |
| 20260504020429 | 71 | 250 | 0.0 | 0.0 | 0.00 | 0.26 | 0.22 | 52 | 1013.5 |
| 20260504015930 | 72 | 220 | 0.0 | 0.0 | 0.00 | 0.26 | 0.22 | 52 | 1013.4 |
| 20260504015428 | 72 | 245 | 0.0 | 0.0 | 0.00 | 0.26 | 0.22 | 51 | 1013.3 |
| 20260504014928 | 72 | 221 | 0.0 | 0.0 | 0.00 | 0.26 | 0.22 | 52 | 1013.4 |
| 20260504014654 | 72 | 221 | 0.0 | 0.0 | 0.00 | 0.27 | 0.22 | 51 | 1013.4 |
| 20260504014538 | 72 | 221 | 0.0 | 0.0 | 0.00 | 0.27 | 0.22 | 51 | 1013.4 |
| 20260504013928 | 72 | 224 | 0.0 | 0.0 | 0.01 | 0.27 | 0.22 | 51 | 1013.4 |
| 20260504013428 | 72 | 244 | 0.0 | 0.0 | 0.01 | 0.27 | 0.22 | 51 | 1013.3 |
| 20260504012930 | 73 | 244 | 0.0 | 0.0 | 0.01 | 0.27 | 0.22 | 51 | 1013.1 |
| 20260504012429 | 73 | 155 | 0.0 | 1.0 | 0.01 | 0.27 | 0.22 | 50 | 1013.1 |
| 20260504012203 | 73 | 197 | 0.0 | 2.0 | 0.01 | 0.27 | 0.22 | 50 | 1013.1 |
| 20260504012049 | 73 | 197 | 0.0 | 2.0 | 0.01 | 0.27 | 0.22 | 50 | 1013.1 |
| 20260504011429 | 73 | 197 | 0.0 | 2.0 | 0.01 | 0.27 | 0.22 | 50 | 1013.1 |
| 20260504010930 | 73 | 151 | 0.0 | 1.0 | 0.01 | 0.28 | 0.22 | 49 | 1013.1 |
| 20260504010426 | 73 | 151 | 0.0 | 0.0 | 0.01 | 0.28 | 0.22 | 48 | 1013.0 |
| 20260504005928 | 74 | 155 | 0.0 | 0.0 | 0.01 | 0.28 | 0.22 | 48 | 1013.0 |
| 20260504005915 | 74 | 149 | 0.0 | 0.0 | 0.01 | 0.28 | 0.22 | 47 | 1013.0 |
| 20260504005535 | 74 | 149 | 0.0 | 0.0 | 0.01 | 0.28 | 0.22 | 47 | 1013.0 |
| 20260504004929 | 74 | 221 | 0.0 | 0.0 | 0.01 | 0.28 | 0.22 | 47 | 1013.1 |
| 20260504004427 | 74 | 223 | 0.0 | 0.0 | 0.01 | 0.28 | 0.22 | 47 | 1013.1 |
| 20260504003927 | 75 | 96 | 0.0 | 0.0 | 0.00 | 0.28 | 0.21 | 46 | 1013.1 |
| 20260504003426 | 75 | 169 | 0.0 | 0.0 | 0.00 | 0.28 | 0.21 | 46 | 1013.1 |
| 20260504002928 | 75 | 164 | 0.0 | 0.0 | 0.00 | 0.28 | 0.21 | 46 | 1013.1 |
| 20260504002425 | 76 | 164 | 0.0 | 0.0 | 0.00 | 0.28 | 0.21 | 45 | 1013.1 |
| 20260504001930 | 76 | 164 | 0.0 | 0.0 | 0.00 | 0.28 | 0.21 | 44 | 1012.9 |
| 20260504001647 | 76 | 162 | 0.0 | 0.0 | 0.00 | 0.28 | 0.21 | 44 | 1013.0 |
| 20260504001535 | 76 | 162 | 0.0 | 0.0 | 0.00 | 0.28 | 0.21 | 44 | 1013.0 |
| 20260504000928 | 76 | 158 | 0.0 | 1.0 | 0.00 | 0.29 | 0.21 | 43 | 1013.1 |
| 20260504000425 | 76 | 166 | 0.0 | 1.0 | 0.00 | 0.29 | 0.21 | 42 | 1013.2 |
| 20260503235929 | 76 | 144 | 0.0 | 0.0 | 0.01 | 0.29 | 0.21 | 43 | 1013.2 |
| 20260503235426 | 77 | 142 | 0.0 | 0.0 | 0.01 | 0.29 | 0.21 | 43 | 1013.2 |
| 20260503234926 | 77 | 243 | 0.0 | 0.0 | 0.01 | 0.29 | 0.21 | 43 | 1013.3 |
| 20260503234425 | 77 | 243 | 0.0 | 0.0 | 0.01 | 0.30 | 0.21 | 42 | 1013.1 |
| 20260503233927 | 77 | 159 | 0.0 | 0.0 | 0.01 | 0.30 | 0.21 | 42 | 1013.2 |
| 20260503233643 | 77 | 89 | 0.0 | 0.0 | 0.01 | 0.30 | 0.21 | 42 | 1013.3 |
| 20260503233534 | 77 | 89 | 0.0 | 0.0 | 0.01 | 0.30 | 0.21 | 42 | 1013.3 |
| 20260503232927 | 78 | 151 | 0.0 | 1.0 | 0.01 | 0.30 | 0.21 | 41 | 1013.2 |
| 20260503232424 | 78 | 188 | 0.0 | 1.0 | 0.01 | 0.30 | 0.21 | 40 | 1013.3 |
| 20260503231926 | 78 | 231 | 0.0 | 0.0 | 0.01 | 0.31 | 0.21 | 40 | 1013.4 |
| 20260503231655 | 78 | 231 | 0.0 | 0.0 | 0.01 | 0.31 | 0.21 | 40 | 1013.3 |
| 20260503231533 | 78 | 231 | 0.0 | 0.0 | 0.01 | 0.31 | 0.21 | 40 | 1013.3 |
| 20260503230928 | 78 | 231 | 0.0 | 1.0 | 0.01 | 0.31 | 0.21 | 40 | 1013.3 |
| 20260503230425 | 79 | 231 | 0.0 | 1.0 | 0.01 | 0.31 | 0.21 | 40 | 1013.3 |
| 20260503230158 | 79 | 185 | 0.0 | 0.0 | 0.01 | 0.30 | 0.20 | 41 | 1013.4 |
| 20260503230037 | 79 | 185 | 0.0 | 0.0 | 0.01 | 0.30 | 0.20 | 41 | 1013.4 |
| 20260503225423 | 79 | 228 | 0.0 | 2.0 | 0.01 | 0.31 | 0.20 | 40 | 1013.5 |
| 20260503224926 | 79 | 228 | 0.0 | 2.0 | 0.01 | 0.31 | 0.20 | 39 | 1013.5 |
| 20260503224424 | 79 | 219 | 0.0 | 1.0 | 0.01 | 0.31 | 0.20 | 39 | 1013.4 |
| 20260503224150 | 79 | 102 | 0.0 | 1.0 | 0.01 | 0.31 | 0.20 | 40 | 1013.5 |
| 20260503224033 | 79 | 102 | 0.0 | 1.0 | 0.01 | 0.31 | 0.20 | 40 | 1013.5 |
| 20260503223423 | 79 | 102 | 0.0 | 0.0 | 0.01 | 0.31 | 0.20 | 38 | 1013.6 |
| 20260503222926 | 79 | 164 | 0.0 | 0.0 | 0.01 | 0.32 | 0.20 | 38 | 1013.7 |
| 20260503222424 | 79 | 109 | 0.0 | 0.0 | 0.01 | 0.32 | 0.20 | 40 | 1013.8 |
| 20260503221925 | 79 | 89 | 0.0 | 3.0 | 0.01 | 0.32 | 0.20 | 40 | 1013.8 |
| 20260503221422 | 79 | 89 | 0.0 | 3.0 | 0.01 | 0.32 | 0.20 | 39 | 1014.0 |
| 20260503221157 | 80 | 157 | 0.0 | 0.0 | 0.01 | 0.33 | 0.20 | 38 | 1014.1 |
| 20260503221034 | 80 | 157 | 0.0 | 0.0 | 0.01 | 0.33 | 0.20 | 38 | 1014.1 |
| 20260503220424 | 80 | 135 | 0.0 | 1.0 | 0.01 | 0.33 | 0.20 | 38 | 1013.9 |
| 20260503220149 | 80 | 168 | 0.0 | 0.0 | 0.00 | 0.32 | 0.19 | 39 | 1013.9 |
| 20260503220033 | 80 | 168 | 0.0 | 0.0 | 0.00 | 0.32 | 0.19 | 39 | 1013.9 |
| 20260503215422 | 80 | 168 | 0.0 | 1.0 | 0.00 | 0.32 | 0.19 | 37 | 1014.0 |
| 20260503215141 | 80 | 207 | 0.0 | 1.0 | 0.00 | 0.33 | 0.19 | 39 | 1013.9 |
| 20260503215032 | 80 | 207 | 0.0 | 1.0 | 0.00 | 0.33 | 0.19 | 39 | 1013.9 |
| 20260503214422 | 79 | 151 | 0.0 | 0.0 | 0.00 | 0.33 | 0.19 | 37 | 1014.0 |
| 20260503213924 | 79 | 138 | 0.0 | 0.0 | 0.01 | 0.33 | 0.19 | 37 | 1014.1 |
| 20260503213422 | 79 | 164 | 0.0 | 0.0 | 0.01 | 0.33 | 0.19 | 36 | 1014.3 |
| 20260503213146 | 80 | 145 | 0.0 | 0.0 | 0.01 | 0.34 | 0.19 | 36 | 1014.4 |
| 20260503213031 | 80 | 145 | 0.0 | 0.0 | 0.01 | 0.34 | 0.19 | 36 | 1014.4 |
| 20260503212653 | 80 | 168 | 0.0 | 0.0 | 0.01 | 0.34 | 0.19 | 37 | 1014.5 |
| 20260503212530 | 80 | 168 | 0.0 | 0.0 | 0.01 | 0.34 | 0.19 | 37 | 1014.5 |
| 20260503211920 | 80 | 188 | 0.0 | 0.0 | 0.01 | 0.34 | 0.19 | 38 | 1014.5 |
| 20260503211642 | 80 | 172 | 0.0 | 0.0 | 0.01 | 0.34 | 0.19 | 37 | 1014.6 |
| 20260503211529 | 80 | 172 | 0.0 | 0.0 | 0.01 | 0.34 | 0.19 | 37 | 1014.6 |
| 20260503211147 | 80 | 235 | 0.0 | 0.0 | 0.01 | 0.34 | 0.19 | 39 | 1014.5 |
| 20260503211031 | 80 | 235 | 0.0 | 0.0 | 0.01 | 0.34 | 0.19 | 39 | 1014.5 |
| 20260503210423 | 80 | 298 | 0.0 | 0.0 | 0.01 | 0.35 | 0.19 | 37 | 1014.5 |
| 20260503205925 | 80 | 141 | 0.0 | 0.0 | 0.01 | 0.35 | 0.19 | 37 | 1014.6 |
| 20260503205423 | 80 | 214 | 0.0 | 0.0 | 0.01 | 0.35 | 0.19 | 36 | 1014.8 |
| 20260503204923 | 80 | 171 | 0.0 | 0.0 | 0.02 | 0.36 | 0.19 | 35 | 1014.9 |
| 20260503204421 | 80 | 172 | 0.0 | 2.0 | 0.02 | 0.36 | 0.19 | 37 | 1015.0 |
| 20260503204400 | 80 | 42 | 0.0 | 2.0 | 0.01 | 0.35 | 0.18 | 37 | 1015.1 |
| 20260503204030 | 80 | 42 | 0.0 | 2.0 | 0.01 | 0.35 | 0.18 | 37 | 1015.1 |
| 20260503203422 | 81 | 189 | 0.0 | 0.0 | 0.01 | 0.35 | 0.18 | 37 | 1015.2 |
| 20260503202923 | 82 | 85 | 0.0 | 0.0 | 0.01 | 0.36 | 0.18 | 36 | 1015.2 |
| 20260503202420 | 82 | 244 | 0.0 | 3.0 | 0.01 | 0.36 | 0.18 | 35 | 1015.3 |
| 20260503201922 | 82 | 172 | 0.0 | 4.0 | 0.01 | 0.36 | 0.18 | 37 | 1015.4 |
| 20260503201420 | 82 | 161 | 0.0 | 4.0 | 0.01 | 0.37 | 0.18 | 34 | 1015.4 |
| 20260503200925 | 83 | 6 | 0.0 | 0.0 | 0.01 | 0.37 | 0.18 | 37 | 1015.6 |